createdAt,value
2022-09-17T00:01:24.432Z,99166.25
2022-09-17T00:03:53.608Z,99166.25
2022-09-17T00:06:21.334Z,99170.94
2022-09-17T00:08:49.628Z,99174.94
2022-09-17T00:11:19.963Z,99159.09
2022-09-17T00:13:50.925Z,99174.94
2022-09-17T00:16:26.389Z,99179.22
2022-09-17T00:18:54.393Z,99162.72
2022-09-17T00:21:21.884Z,99170.34
2022-09-17T00:23:52.860Z,99155.53
2022-09-17T00:26:19.705Z,99167.09
2022-09-17T00:28:51.965Z,99177.44
2022-09-17T00:31:19.781Z,99166.53
2022-09-17T00:33:47.469Z,99155.97
2022-09-17T00:36:15.061Z,99176.84
2022-09-17T00:38:41.983Z,99170.94
2022-09-17T00:41:09.336Z,99166.75
2022-09-17T00:43:41.184Z,99171.72
2022-09-17T00:46:26.409Z,99176.63
2022-09-17T00:48:55.325Z,99172.22
2022-09-17T00:51:35.819Z,99179.38
2022-09-17T00:54:07.531Z,99178.78
2022-09-17T00:56:39.049Z,99188.16
2022-09-17T00:59:07.572Z,99182.50
2022-09-17T01:01:36.641Z,99177.28
2022-09-17T01:04:04.013Z,99191.44
2022-09-17T01:06:37.547Z,99181.75
2022-09-17T01:09:26.248Z,99179.66
2022-09-17T01:12:23.834Z,99180.63
2022-09-17T01:15:14.212Z,99190.56
2022-09-17T01:17:54.979Z,99189.41
2022-09-17T01:21:14.935Z,99193.34
2022-09-17T01:24:17.403Z,99185.91
2022-09-17T01:27:31.364Z,99198.88
2022-09-17T01:30:20.760Z,99190.16
2022-09-17T01:32:58.144Z,99200.22
2022-09-17T01:35:36.234Z,99197.75
2022-09-17T01:38:15.363Z,99196.91
2022-09-17T01:40:53.622Z,99184.06
2022-09-17T01:43:32.036Z,99193.53
2022-09-17T01:46:12.553Z,99185.50
2022-09-17T01:48:47.152Z,99186.84
2022-09-17T01:51:20.359Z,99190.03
2022-09-17T01:53:54.977Z,99184.94
2022-09-17T01:56:27.947Z,99190.59
2022-09-17T01:59:04.414Z,99183.84
2022-09-17T02:01:35.293Z,99203.25
2022-09-17T02:04:11.397Z,99207.28
2022-09-17T02:06:46.006Z,99206.56
2022-09-17T02:09:18.536Z,99213.22
2022-09-17T02:11:53.545Z,99208.81
2022-09-17T02:14:27.585Z,99195.31
2022-09-17T02:17:05.588Z,99205.00
2022-09-17T02:19:38.701Z,99219.31
2022-09-17T02:22:21.340Z,99199.66
2022-09-17T02:25:03.721Z,99210.50
2022-09-17T02:27:48.010Z,99207.22
2022-09-17T02:30:16.207Z,99202.28
2022-09-17T02:32:43.595Z,99212.69
2022-09-17T02:35:13.078Z,99204.16
2022-09-17T02:37:40.252Z,99202.69
2022-09-17T02:40:08.737Z,99206.13
2022-09-17T02:42:59.392Z,99210.97
2022-09-17T02:45:48.766Z,99219.97
2022-09-17T02:48:46.825Z,99218.56
2022-09-17T02:51:36.465Z,99205.19
2022-09-17T02:54:18.231Z,99219.75
2022-09-17T02:56:57.482Z,99220.94
2022-09-17T02:59:35.735Z,99211.28
2022-09-17T03:02:12.085Z,99210.88
2022-09-17T03:04:40.278Z,99220.81
2022-09-17T03:07:11.519Z,99221.88
2022-09-17T03:09:38.661Z,99221.31
2022-09-17T03:12:06.279Z,99216.78
2022-09-17T03:14:33.314Z,99209.22
2022-09-17T03:17:00.279Z,99209.47
2022-09-17T03:19:27.268Z,99204.41
2022-09-17T03:21:54.115Z,99201.66
2022-09-17T03:24:22.730Z,99209.47
2022-09-17T03:26:49.739Z,99206.50
2022-09-17T03:29:16.906Z,99206.25
2022-09-17T03:31:44.382Z,99203.63
2022-09-17T03:34:11.676Z,99205.16
2022-09-17T03:36:38.495Z,99218.19
2022-09-17T03:39:05.884Z,99207.88
2022-09-17T03:41:34.004Z,99198.81
2022-09-17T03:44:00.855Z,99206.13
2022-09-17T03:46:27.745Z,99205.16
2022-09-17T03:48:54.615Z,99207.66
2022-09-17T03:51:21.788Z,99214.78
2022-09-17T03:53:49.020Z,99211.44
2022-09-17T03:56:15.816Z,99217.06
2022-09-17T03:58:44.185Z,99214.94
2022-09-17T04:01:11.352Z,99232.44
2022-09-17T04:03:39.279Z,99218.16
2022-09-17T04:06:06.824Z,99226.81
2022-09-17T04:08:33.648Z,99230.84
2022-09-17T04:11:00.504Z,99238.09
2022-09-17T04:13:27.280Z,99241.28
2022-09-17T04:15:55.528Z,99234.69
2022-09-17T04:18:22.634Z,99235.66
2022-09-17T04:20:50.001Z,99233.84
2022-09-17T04:23:16.842Z,99235.03
2022-09-17T04:25:44.810Z,99231.75
2022-09-17T04:28:12.068Z,99228.56
2022-09-17T04:30:39.465Z,99232.81
2022-09-17T04:33:07.881Z,99228.78
2022-09-17T04:35:35.533Z,99229.72
2022-09-17T04:38:02.411Z,99232.09
2022-09-17T04:40:29.809Z,99234.00
2022-09-17T04:42:59.375Z,99224.78
2022-09-17T04:45:26.520Z,99215.78
2022-09-17T04:47:53.455Z,99233.31
2022-09-17T04:50:22.367Z,99232.13
2022-09-17T04:52:49.190Z,99242.06
2022-09-17T04:55:16.841Z,99240.91
2022-09-17T04:57:46.783Z,99234.53
2022-09-17T05:00:15.449Z,99246.13
2022-09-17T05:02:44.000Z,99240.91
2022-09-17T05:05:10.773Z,99247.19
2022-09-17T05:07:40.152Z,99232.38
2022-09-17T05:10:09.489Z,99258.28
2022-09-17T05:12:36.317Z,99259.81
2022-09-17T05:15:03.815Z,99255.31
2022-09-17T05:17:30.682Z,99257.00
2022-09-17T05:19:57.606Z,99256.53
2022-09-17T05:22:24.580Z,99256.28
2022-09-17T05:24:53.030Z,99262.19
2022-09-17T05:27:20.149Z,99269.66
2022-09-17T05:29:46.964Z,99269.88
2022-09-17T05:32:14.164Z,99261.72
2022-09-17T05:34:41.389Z,99263.59
2022-09-17T05:37:11.072Z,99279.47
2022-09-17T05:39:40.801Z,99274.28
2022-09-17T05:42:09.118Z,99258.66
2022-09-17T05:44:35.939Z,99274.75
2022-09-17T05:47:05.301Z,99261.72
2022-09-17T05:49:32.396Z,99273.41
2022-09-17T05:51:59.300Z,99266.44
2022-09-17T05:54:29.923Z,99277.19
2022-09-17T06:00:32.809Z,99282.88
2022-09-17T06:03:00.600Z,99287.38
2022-09-17T06:05:28.005Z,99288.66
2022-09-17T06:08:32.598Z,99278.94
2022-09-17T06:11:02.589Z,99287.31
2022-09-17T06:13:41.968Z,99288.13
2022-09-17T06:16:12.059Z,99286.94
2022-09-17T06:18:54.831Z,99282.91
2022-09-17T06:21:36.294Z,99302.19
2022-09-17T06:24:03.646Z,99312.72
2022-09-17T06:26:30.546Z,99297.09
2022-09-17T06:29:00.522Z,99309.03
2022-09-17T06:31:33.901Z,99297.34
2022-09-17T06:34:31.464Z,99315.56
2022-09-17T06:36:51.104Z,99314.84
2022-09-17T06:39:22.147Z,99308.97
2022-09-17T06:42:42.418Z,99305.16
2022-09-17T06:46:17.819Z,99329.59
2022-09-17T06:49:41.516Z,99328.16
2022-09-17T06:52:08.785Z,99331.97
2022-09-17T06:54:35.713Z,99331.00
2022-09-17T06:57:02.667Z,99328.88
2022-09-17T06:59:29.517Z,99339.78
2022-09-17T07:09:15.271Z,99320.75
2022-09-17T07:11:42.564Z,99335.91
2022-09-17T07:14:10.150Z,99323.94
2022-09-17T07:16:37.159Z,99342.88
2022-09-17T07:19:05.123Z,99344.28
2022-09-17T07:21:33.801Z,99350.28
2022-09-17T07:24:02.053Z,99334.13
2022-09-17T07:26:30.385Z,99358.56
2022-09-17T07:28:59.485Z,99352.13
2022-09-17T07:31:55.403Z,99340.09
2022-09-17T07:39:18.000Z,99363.88
2022-09-17T07:41:46.712Z,99361.66
2022-09-17T07:44:22.047Z,99348.03
2022-09-17T07:47:09.821Z,99335.53
2022-09-17T07:49:44.898Z,99356.16
2022-09-17T07:52:12.467Z,99365.94
2022-09-17T07:58:39.951Z,99375.88
2022-09-17T08:01:34.686Z,99368.28
2022-09-17T08:04:32.950Z,99358.25
2022-09-17T08:07:00.334Z,99378.00
2022-09-17T08:09:27.532Z,99379.72
2022-09-17T08:13:02.869Z,99365.31
2022-09-17T08:16:20.148Z,99362.50
2022-09-17T08:18:59.962Z,99385.22
2022-09-17T08:21:29.044Z,99366.34
2022-09-17T08:23:59.343Z,99377.59
2022-09-17T08:26:29.156Z,99383.88
2022-09-17T08:28:56.442Z,99380.53
2022-09-17T08:31:29.691Z,99359.44
2022-09-17T08:33:57.045Z,99392.78
2022-09-17T08:36:24.017Z,99388.16
2022-09-17T08:38:53.502Z,99374.25
2022-09-17T08:41:30.568Z,99373.31
2022-09-17T08:44:15.974Z,99388.09
2022-09-17T08:46:50.743Z,99370.03
2022-09-17T08:49:31.955Z,99370.44
2022-09-17T08:52:51.636Z,99378.31
2022-09-17T08:55:33.824Z,99385.66
2022-09-17T08:58:30.770Z,99398.34
2022-09-17T09:01:12.694Z,99384.84
2022-09-17T09:04:04.341Z,99386.31
2022-09-17T09:06:38.156Z,99397.56
2022-09-17T09:09:14.460Z,99387.31
2022-09-17T09:11:47.655Z,99379.22
2022-09-17T09:14:23.267Z,99394.13
2022-09-17T09:16:54.750Z,99392.13
2022-09-17T09:19:30.974Z,99383.13
2022-09-17T09:22:46.400Z,99402.16
2022-09-17T09:25:47.398Z,99404.09
2022-09-17T09:28:49.008Z,99399.16
2022-09-17T09:31:44.663Z,99393.66
2022-09-17T09:34:15.049Z,99370.50
2022-09-17T09:36:44.736Z,99392.25
2022-09-17T09:39:25.817Z,99380.94
2022-09-17T09:42:00.716Z,99379.28
2022-09-17T09:44:29.069Z,99384.63
2022-09-17T09:47:33.870Z,99396.44
2022-09-17T09:50:22.378Z,99365.88
2022-09-17T09:53:21.893Z,99374.44
2022-09-17T09:57:00.815Z,99382.00
2022-09-17T09:59:29.287Z,99381.22
2022-09-17T10:02:06.914Z,99372.97
2022-09-17T10:04:53.559Z,99369.78
2022-09-17T10:08:06.067Z,99361.13
2022-09-17T10:11:00.542Z,99380.75
2022-09-17T15:01:14.261Z,99249.13
2022-09-17T15:03:41.316Z,99270.19
2022-09-17T15:09:28.651Z,99258.66
2022-09-17T15:12:00.724Z,99261.66
2022-09-17T15:14:37.704Z,99266.44
2022-09-17T15:17:14.654Z,99261.31
2022-09-17T15:20:26.053Z,99271.16
2022-09-17T15:23:33.731Z,99271.34
2022-09-17T15:26:06.602Z,99282.34
2022-09-17T15:28:46.710Z,99264.13
2022-09-17T15:31:24.955Z,99276.72
2022-09-17T15:33:53.845Z,99262.56
2022-09-17T15:36:25.683Z,99273.44
2022-09-17T15:38:52.953Z,99276.38
2022-09-17T15:41:31.163Z,99277.03
2022-09-17T15:44:31.875Z,99268.16
2022-09-17T15:47:50.033Z,99281.44
2022-09-17T15:50:21.465Z,99276.16
2022-09-17T15:56:23.242Z,99265.44
2022-09-17T16:04:08.962Z,99275.19
2022-09-17T16:10:53.840Z,99279.09
2022-09-17T16:13:27.942Z,99279.19
2022-09-17T16:15:57.563Z,99287.53
2022-09-17T16:18:24.468Z,99290.22
2022-09-17T16:20:51.217Z,99296.28
2022-09-17T16:23:18.362Z,99299.31
2022-09-17T16:25:45.317Z,99292.00
2022-09-17T16:28:19.348Z,99303.91
2022-09-17T16:30:49.287Z,99300.47
2022-09-17T16:33:18.259Z,99306.59
2022-09-17T16:35:45.270Z,99300.34
2022-09-17T16:38:12.113Z,99309.72
2022-09-17T16:40:43.702Z,99301.66
2022-09-17T16:43:10.687Z,99310.13
2022-09-17T16:45:39.204Z,99307.91
2022-09-17T16:48:07.273Z,99307.13
2022-09-17T16:50:41.778Z,99311.00
2022-09-17T16:53:08.525Z,99312.44
2022-09-17T16:55:35.558Z,99316.06
2022-09-17T16:58:02.266Z,99323.78
2022-09-17T17:00:29.085Z,99321.63
2022-09-17T17:02:57.765Z,99323.84
2022-09-17T17:05:26.686Z,99329.69
2022-09-17T17:07:54.876Z,99347.06
2022-09-17T17:10:22.505Z,99340.91
2022-09-17T17:12:49.685Z,99344.09
2022-09-17T17:15:16.749Z,99336.13
2022-09-17T17:17:43.439Z,99338.66
2022-09-17T17:20:11.549Z,99340.44
2022-09-17T17:22:39.198Z,99336.75
2022-09-17T17:25:07.657Z,99337.34
2022-09-17T17:27:34.667Z,99341.22
2022-09-17T17:30:02.115Z,99342.84
2022-09-17T17:32:28.833Z,99343.25
2022-09-17T17:34:55.797Z,99343.69
2022-09-17T17:37:24.086Z,99349.63
2022-09-17T17:39:51.026Z,99349.78
2022-09-17T17:42:17.902Z,99351.25
2022-09-17T17:44:44.685Z,99354.31
2022-09-17T17:47:11.658Z,99356.41
2022-09-17T17:49:38.372Z,99364.13
2022-09-17T17:52:05.321Z,99357.78
2022-09-17T17:54:33.702Z,99365.34
2022-09-17T17:57:00.444Z,99366.59
2022-09-17T17:59:27.195Z,99376.28
2022-09-17T18:01:53.984Z,99377.22
2022-09-17T18:04:20.930Z,99374.91
2022-09-17T18:06:48.184Z,99384.69
2022-09-17T18:09:15.089Z,99382.75
2022-09-17T18:11:43.191Z,99385.38
2022-09-17T18:14:13.009Z,99377.13
2022-09-17T18:16:40.285Z,99388.41
2022-09-17T18:19:09.353Z,99390.47
2022-09-17T18:21:36.083Z,99395.56
2022-09-17T18:24:03.494Z,99402.34
2022-09-17T18:26:30.929Z,99395.16
2022-09-17T18:28:59.263Z,99403.13
2022-09-17T18:31:28.601Z,99407.81
2022-09-17T18:33:58.006Z,99403.00
2022-09-17T18:36:25.854Z,99414.69
2022-09-17T18:38:54.230Z,99416.63
2022-09-17T18:41:21.156Z,99413.47
2022-09-17T18:43:47.990Z,99417.00
2022-09-17T18:46:16.517Z,99414.81
2022-09-17T18:48:43.301Z,99411.22
2022-09-17T18:51:13.659Z,99413.56
2022-09-17T18:53:40.610Z,99417.81
2022-09-17T18:56:15.699Z,99418.50
2022-09-17T18:58:42.759Z,99421.41
2022-09-17T19:01:09.652Z,99427.31
2022-09-17T19:03:38.312Z,99432.56
2022-09-17T19:06:09.067Z,99430.78
2022-09-17T19:08:36.773Z,99437.13
2022-09-17T19:11:04.905Z,99445.09
2022-09-17T19:13:34.906Z,99443.81
2022-09-17T19:16:04.369Z,99455.25
2022-09-17T19:18:31.824Z,99449.72
2022-09-17T19:21:01.855Z,99473.41
2022-09-17T19:23:30.411Z,99476.50
2022-09-17T19:26:04.042Z,99477.13
2022-09-17T19:28:30.871Z,99480.41
2022-09-17T19:30:57.975Z,99492.94
2022-09-17T19:33:24.818Z,99494.97
2022-09-17T19:35:51.600Z,99497.38
2022-09-17T19:38:19.778Z,99505.06
2022-09-17T19:40:56.909Z,99502.25
2022-09-17T19:43:24.087Z,99509.66
2022-09-17T19:45:50.911Z,99525.06
2022-09-17T19:48:20.979Z,99510.63
2022-09-17T19:50:51.199Z,99520.09
2022-09-17T19:53:19.874Z,99511.13
2022-09-17T19:55:47.127Z,99516.34
2022-09-17T19:58:14.575Z,99513.72
2022-09-17T20:00:41.612Z,99509.06
2022-09-17T20:03:09.006Z,99511.31
2022-09-17T20:05:36.066Z,99511.31
2022-09-17T20:08:04.084Z,99519.84
2022-09-17T20:10:35.657Z,99517.09
2022-09-17T20:13:02.810Z,99513.28
2022-09-17T20:15:29.920Z,99522.66
2022-09-17T20:17:56.771Z,99519.84
2022-09-17T20:20:23.549Z,99524.81
2022-09-17T20:22:51.571Z,99516.75
2022-09-17T20:25:18.465Z,99518.34
2022-09-17T20:27:46.678Z,99515.75
2022-09-17T20:30:13.958Z,99526.84
2022-09-17T20:32:40.911Z,99523.28
2022-09-17T20:35:08.929Z,99526.50
2022-09-17T20:38:33.042Z,99517.38
2022-09-17T20:40:22.691Z,99515.88
2022-09-17T20:42:51.076Z,99524.50
2022-09-17T20:45:17.804Z,99517.53
2022-09-17T20:47:44.738Z,99527.00
2022-09-17T20:50:11.742Z,99526.63
2022-09-17T20:52:38.486Z,99522.13
2022-09-17T20:55:05.996Z,99530.16
2022-09-17T20:57:32.826Z,99532.06
2022-09-17T21:00:01.913Z,99538.09
2022-09-17T21:02:31.530Z,99541.75
2022-09-17T21:04:58.490Z,99545.09
2022-09-17T21:07:27.350Z,99545.50
2022-09-17T21:09:54.118Z,99544.69
2022-09-17T21:12:24.319Z,99546.41
2022-09-17T21:14:54.231Z,99546.97
2022-09-17T21:17:22.531Z,99550.56
2022-09-17T21:19:49.227Z,99553.16
2022-09-17T21:22:15.976Z,99556.28
2022-09-17T21:24:42.718Z,99555.25
2022-09-17T21:27:09.633Z,99557.00
2022-09-17T21:29:36.889Z,99565.81
2022-09-17T21:32:03.601Z,99566.88
2022-09-17T21:34:31.754Z,99563.31
2022-09-17T21:36:58.534Z,99570.22
2022-09-17T21:39:25.277Z,99572.69
2022-09-17T21:41:52.015Z,99571.03
2022-09-17T21:44:18.764Z,99571.50
2022-09-17T21:46:45.692Z,99569.16
2022-09-17T21:49:12.483Z,99566.53
2022-09-17T21:51:42.984Z,99567.34
2022-09-17T21:54:13.179Z,99568.31
2022-09-17T21:56:40.165Z,99567.47
2022-09-17T21:59:09.575Z,99566.53
2022-09-17T22:01:39.768Z,99566.88
2022-09-17T22:04:08.757Z,99563.69
2022-09-17T22:06:36.698Z,99558.47
2022-09-17T22:09:07.213Z,99568.03
2022-09-17T22:11:37.022Z,99574.94
2022-09-17T22:14:06.545Z,99573.91
2022-09-17T22:16:34.200Z,99569.50
2022-09-17T22:19:01.048Z,99574.50
2022-09-17T22:21:30.051Z,99564.63
2022-09-17T22:24:00.831Z,99564.84
2022-09-17T22:26:32.770Z,99559.88
2022-09-17T22:29:01.759Z,99567.38
2022-09-17T22:31:29.034Z,99565.19
2022-09-17T22:33:56.118Z,99554.03
2022-09-17T22:36:25.607Z,99551.63
2022-09-17T22:38:55.788Z,99551.75
2022-09-17T22:41:27.137Z,99543.19
2022-09-17T22:43:57.565Z,99552.28
2022-09-17T22:46:27.063Z,99564.66
2022-09-17T22:48:54.485Z,99559.47
2022-09-17T22:51:22.667Z,99562.56
2022-09-17T22:53:54.545Z,99560.16
2022-09-17T22:56:29.283Z,99563.59
2022-09-17T22:58:58.552Z,99556.81
2022-09-17T23:01:29.038Z,99565.13
2022-09-17T23:03:58.115Z,99568.91
2022-09-17T23:06:28.712Z,99564.88
2022-09-17T23:08:57.031Z,99560.84
2022-09-17T23:11:27.207Z,99561.56
2022-09-17T23:13:58.682Z,99564.22
2022-09-17T23:16:25.630Z,99563.97
2022-09-17T23:18:52.494Z,99566.56
2022-09-17T23:21:20.674Z,99559.44
2022-09-17T23:23:50.671Z,99566.91
2022-09-17T23:26:20.773Z,99559.34
2022-09-17T23:28:48.877Z,99547.69
2022-09-17T23:31:21.947Z,99543.88
2022-09-17T23:33:50.549Z,99550.75
2022-09-17T23:36:20.844Z,99555.97
2022-09-17T23:38:49.752Z,99546.09
2022-09-17T23:41:19.217Z,99546.31
2022-09-17T23:43:49.136Z,99552.50
2022-09-17T23:46:18.192Z,99545.28
2022-09-17T23:48:45.710Z,99542.38
2022-09-17T23:51:12.761Z,99541.47
2022-09-17T23:53:40.056Z,99548.47
2022-09-17T23:56:12.940Z,99557.56
2022-09-17T23:58:39.890Z,99550.97
